sensor_id;sensor_type;location;lat;lon;timestamp;P1;durP1;ratioP1;P2;durP2;ratioP2
12367;SDS011;6248;49.812;6.620;2023-06-14T00:01:50;3.17;;;2.97;;
12367;SDS011;6248;49.812;6.620;2023-06-14T00:04:17;3.28;;;3.08;;
12367;SDS011;6248;49.812;6.620;2023-06-14T00:06:45;4.13;;;3.08;;
12367;SDS011;6248;49.812;6.620;2023-06-14T00:09:13;3.47;;;3.17;;
12367;SDS011;6248;49.812;6.620;2023-06-14T00:11:43;2.97;;;2.78;;
12367;SDS011;6248;49.812;6.620;2023-06-14T00:14:11;4.45;;;3.15;;
12367;SDS011;6248;49.812;6.620;2023-06-14T00:16:39;3.60;;;3.22;;
12367;SDS011;6248;49.812;6.620;2023-06-14T00:19:07;3.50;;;3.20;;
12367;SDS011;6248;49.812;6.620;2023-06-14T00:21:35;3.63;;;3.15;;
12367;SDS011;6248;49.812;6.620;2023-06-14T00:24:03;3.58;;;3.28;;
12367;SDS011;6248;49.812;6.620;2023-06-14T00:26:30;3.65;;;3.35;;
12367;SDS011;6248;49.812;6.620;2023-06-14T00:28:59;5.88;;;3.15;;
12367;SDS011;6248;49.812;6.620;2023-06-14T00:31:26;3.50;;;2.97;;
12367;SDS011;6248;49.812;6.620;2023-06-14T00:33:53;3.40;;;3.10;;
12367;SDS011;6248;49.812;6.620;2023-06-14T00:36:20;3.60;;;2.92;;
12367;SDS011;6248;49.812;6.620;2023-06-14T00:38:47;3.95;;;2.85;;
12367;SDS011;6248;49.812;6.620;2023-06-14T00:41:14;4.85;;;3.15;;
12367;SDS011;6248;49.812;6.620;2023-06-14T00:43:42;3.17;;;2.88;;
12367;SDS011;6248;49.812;6.620;2023-06-14T00:46:10;4.97;;;3.20;;
12367;SDS011;6248;49.812;6.620;2023-06-14T00:48:37;3.20;;;2.97;;
12367;SDS011;6248;49.812;6.620;2023-06-14T00:51:05;4.70;;;3.00;;
12367;SDS011;6248;49.812;6.620;2023-06-14T00:53:33;3.70;;;3.40;;
12367;SDS011;6248;49.812;6.620;2023-06-14T00:56:00;4.40;;;3.50;;
12367;SDS011;6248;49.812;6.620;2023-06-14T00:58:28;3.20;;;2.90;;
12367;SDS011;6248;49.812;6.620;2023-06-14T01:00:55;3.10;;;2.90;;
12367;SDS011;6248;49.812;6.620;2023-06-14T01:03:24;3.65;;;3.13;;
12367;SDS011;6248;49.812;6.620;2023-06-14T01:05:53;3.40;;;3.10;;
12367;SDS011;6248;49.812;6.620;2023-06-14T01:08:28;7.10;;;3.40;;
12367;SDS011;6248;49.812;6.620;2023-06-14T01:11:00;3.47;;;3.17;;
12367;SDS011;6248;49.812;6.620;2023-06-14T01:13:32;3.70;;;3.40;;
12367;SDS011;6248;49.812;6.620;2023-06-14T01:16:00;3.83;;;3.10;;
12367;SDS011;6248;49.812;6.620;2023-06-14T01:18:29;3.30;;;3.00;;
12367;SDS011;6248;49.812;6.620;2023-06-14T01:20:57;3.92;;;3.03;;
12367;SDS011;6248;49.812;6.620;2023-06-14T01:23:25;3.45;;;3.15;;
12367;SDS011;6248;49.812;6.620;2023-06-14T01:25:57;4.85;;;3.30;;
12367;SDS011;6248;49.812;6.620;2023-06-14T01:28:25;3.78;;;3.20;;
12367;SDS011;6248;49.812;6.620;2023-06-14T01:30:57;4.72;;;3.10;;
12367;SDS011;6248;49.812;6.620;2023-06-14T01:33:29;3.28;;;2.90;;
12367;SDS011;6248;49.812;6.620;2023-06-14T01:35:56;3.58;;;2.90;;
12367;SDS011;6248;49.812;6.620;2023-06-14T01:38:25;3.88;;;3.25;;
12367;SDS011;6248;49.812;6.620;2023-06-14T01:40:54;3.80;;;3.50;;
12367;SDS011;6248;49.812;6.620;2023-06-14T01:43:21;6.10;;;3.35;;
12367;SDS011;6248;49.812;6.620;2023-06-14T01:45:49;4.80;;;3.20;;
12367;SDS011;6248;49.812;6.620;2023-06-14T01:48:18;3.42;;;3.13;;
12367;SDS011;6248;49.812;6.620;2023-06-14T01:50:47;4.68;;;3.15;;
12367;SDS011;6248;49.812;6.620;2023-06-14T01:53:14;4.10;;;3.00;;
12367;SDS011;6248;49.812;6.620;2023-06-14T01:55:43;3.47;;;3.17;;
12367;SDS011;6248;49.812;6.620;2023-06-14T01:58:13;4.30;;;3.50;;
12367;SDS011;6248;49.812;6.620;2023-06-14T02:00:42;6.13;;;3.28;;
12367;SDS011;6248;49.812;6.620;2023-06-14T02:03:10;3.38;;;3.08;;
12367;SDS011;6248;49.812;6.620;2023-06-14T02:05:38;3.53;;;3.22;;
12367;SDS011;6248;49.812;6.620;2023-06-14T02:08:05;3.60;;;3.30;;
12367;SDS011;6248;49.812;6.620;2023-06-14T02:10:33;3.10;;;2.90;;
12367;SDS011;6248;49.812;6.620;2023-06-14T02:13:01;3.28;;;2.92;;
12367;SDS011;6248;49.812;6.620;2023-06-14T02:15:28;3.58;;;3.28;;
12367;SDS011;6248;49.812;6.620;2023-06-14T02:17:58;4.75;;;3.20;;
12367;SDS011;6248;49.812;6.620;2023-06-14T02:20:26;3.72;;;3.05;;
12367;SDS011;6248;49.812;6.620;2023-06-14T02:22:53;3.67;;;2.90;;
12367;SDS011;6248;49.812;6.620;2023-06-14T02:25:21;3.63;;;3.20;;
12367;SDS011;6248;49.812;6.620;2023-06-14T02:27:48;3.67;;;3.30;;
12367;SDS011;6248;49.812;6.620;2023-06-14T02:30:16;3.38;;;3.08;;
12367;SDS011;6248;49.812;6.620;2023-06-14T02:32:44;3.67;;;3.30;;
12367;SDS011;6248;49.812;6.620;2023-06-14T02:35:13;3.53;;;3.22;;
12367;SDS011;6248;49.812;6.620;2023-06-14T02:37:40;3.47;;;3.13;;
12367;SDS011;6248;49.812;6.620;2023-06-14T02:40:08;3.20;;;2.90;;
12367;SDS011;6248;49.812;6.620;2023-06-14T02:42:35;3.33;;;3.08;;
12367;SDS011;6248;49.812;6.620;2023-06-14T02:45:02;3.78;;;3.47;;
12367;SDS011;6248;49.812;6.620;2023-06-14T02:47:31;4.57;;;3.60;;
12367;SDS011;6248;49.812;6.620;2023-06-14T02:49:58;4.38;;;3.15;;
12367;SDS011;6248;49.812;6.620;2023-06-14T02:52:25;4.57;;;3.30;;
12367;SDS011;6248;49.812;6.620;2023-06-14T02:54:53;5.63;;;3.60;;
12367;SDS011;6248;49.812;6.620;2023-06-14T02:57:20;4.20;;;3.35;;
12367;SDS011;6248;49.812;6.620;2023-06-14T02:59:48;3.38;;;3.08;;
12367;SDS011;6248;49.812;6.620;2023-06-14T03:02:15;6.68;;;3.58;;
12367;SDS011;6248;49.812;6.620;2023-06-14T03:04:43;3.40;;;3.13;;
12367;SDS011;6248;49.812;6.620;2023-06-14T03:07:11;4.25;;;3.58;;
12367;SDS011;6248;49.812;6.620;2023-06-14T03:09:39;3.72;;;3.42;;
12367;SDS011;6248;49.812;6.620;2023-06-14T03:12:06;5.90;;;3.38;;
12367;SDS011;6248;49.812;6.620;2023-06-14T03:14:34;3.83;;;3.08;;
12367;SDS011;6248;49.812;6.620;2023-06-14T03:17:01;3.03;;;2.83;;
12367;SDS011;6248;49.812;6.620;2023-06-14T03:19:29;4.18;;;3.38;;
12367;SDS011;6248;49.812;6.620;2023-06-14T03:21:58;3.38;;;3.08;;
12367;SDS011;6248;49.812;6.620;2023-06-14T03:24:25;3.60;;;3.30;;
12367;SDS011;6248;49.812;6.620;2023-06-14T03:26:53;5.10;;;3.50;;
12367;SDS011;6248;49.812;6.620;2023-06-14T03:29:21;3.22;;;2.92;;
12367;SDS011;6248;49.812;6.620;2023-06-14T03:31:58;3.67;;;3.20;;
12367;SDS011;6248;49.812;6.620;2023-06-14T03:34:26;3.30;;;3.00;;
12367;SDS011;6248;49.812;6.620;2023-06-14T03:36:53;3.70;;;3.40;;
12367;SDS011;6248;49.812;6.620;2023-06-14T03:39:21;3.67;;;3.40;;
12367;SDS011;6248;49.812;6.620;2023-06-14T03:41:49;5.90;;;3.60;;
12367;SDS011;6248;49.812;6.620;2023-06-14T03:44:16;3.90;;;3.58;;
12367;SDS011;6248;49.812;6.620;2023-06-14T03:46:44;4.22;;;3.63;;
12367;SDS011;6248;49.812;6.620;2023-06-14T03:49:11;3.63;;;3.33;;
12367;SDS011;6248;49.812;6.620;2023-06-14T03:51:38;4.05;;;3.70;;
12367;SDS011;6248;49.812;6.620;2023-06-14T03:54:05;3.67;;;3.38;;
12367;SDS011;6248;49.812;6.620;2023-06-14T03:56:34;3.90;;;3.50;;
12367;SDS011;6248;49.812;6.620;2023-06-14T03:59:01;3.95;;;3.60;;
12367;SDS011;6248;49.812;6.620;2023-06-14T04:01:28;4.50;;;3.40;;
12367;SDS011;6248;49.812;6.620;2023-06-14T04:03:56;6.00;;;3.63;;
12367;SDS011;6248;49.812;6.620;2023-06-14T04:06:23;6.38;;;3.50;;
12367;SDS011;6248;49.812;6.620;2023-06-14T04:11:27;4.00;;;3.70;;
12367;SDS011;6248;49.812;6.620;2023-06-14T04:13:56;5.07;;;3.47;;
12367;SDS011;6248;49.812;6.620;2023-06-14T04:16:23;3.67;;;3.38;;
12367;SDS011;6248;49.812;6.620;2023-06-14T04:18:50;5.32;;;3.35;;
12367;SDS011;6248;49.812;6.620;2023-06-14T04:21:18;4.03;;;3.53;;
12367;SDS011;6248;49.812;6.620;2023-06-14T04:23:46;4.72;;;3.60;;
12367;SDS011;6248;49.812;6.620;2023-06-14T04:26:13;4.38;;;3.63;;
12367;SDS011;6248;49.812;6.620;2023-06-14T04:28:41;4.43;;;3.40;;
12367;SDS011;6248;49.812;6.620;2023-06-14T04:31:13;3.53;;;3.22;;
12367;SDS011;6248;49.812;6.620;2023-06-14T04:33:41;3.88;;;3.50;;
12367;SDS011;6248;49.812;6.620;2023-06-14T04:36:10;4.22;;;3.50;;
12367;SDS011;6248;49.812;6.620;2023-06-14T04:38:38;4.57;;;3.90;;
12367;SDS011;6248;49.812;6.620;2023-06-14T04:41:06;3.70;;;3.40;;
12367;SDS011;6248;49.812;6.620;2023-06-14T04:43:36;5.05;;;3.85;;
12367;SDS011;6248;49.812;6.620;2023-06-14T04:46:04;4.18;;;3.80;;
12367;SDS011;6248;49.812;6.620;2023-06-14T04:48:37;3.58;;;3.28;;
12367;SDS011;6248;49.812;6.620;2023-06-14T04:51:06;4.00;;;3.70;;
12367;SDS011;6248;49.812;6.620;2023-06-14T04:53:33;4.05;;;3.65;;
12367;SDS011;6248;49.812;6.620;2023-06-14T04:56:00;4.00;;;3.70;;
12367;SDS011;6248;49.812;6.620;2023-06-14T04:58:27;4.05;;;3.55;;
12367;SDS011;6248;49.812;6.620;2023-06-14T05:00:55;3.67;;;3.33;;
12367;SDS011;6248;49.812;6.620;2023-06-14T05:03:24;4.22;;;3.40;;
12367;SDS011;6248;49.812;6.620;2023-06-14T05:05:52;3.90;;;3.60;;
12367;SDS011;6248;49.812;6.620;2023-06-14T05:08:20;4.55;;;3.72;;
12367;SDS011;6248;49.812;6.620;2023-06-14T05:10:49;5.18;;;3.40;;
12367;SDS011;6248;49.812;6.620;2023-06-14T05:13:16;4.47;;;3.60;;
12367;SDS011;6248;49.812;6.620;2023-06-14T05:15:45;3.40;;;3.13;;
12367;SDS011;6248;49.812;6.620;2023-06-14T05:18:16;4.13;;;3.75;;
12367;SDS011;6248;49.812;6.620;2023-06-14T05:20:44;5.57;;;3.40;;
12367;SDS011;6248;49.812;6.620;2023-06-14T05:23:18;4.50;;;3.50;;
12367;SDS011;6248;49.812;6.620;2023-06-14T05:25:49;4.70;;;3.50;;
12367;SDS011;6248;49.812;6.620;2023-06-14T05:28:16;3.90;;;3.50;;
12367;SDS011;6248;49.812;6.620;2023-06-14T05:30:44;3.58;;;3.28;;
12367;SDS011;6248;49.812;6.620;2023-06-14T05:33:11;3.97;;;3.42;;
12367;SDS011;6248;49.812;6.620;2023-06-14T05:35:39;3.78;;;3.33;;
12367;SDS011;6248;49.812;6.620;2023-06-14T05:38:07;5.43;;;3.85;;
12367;SDS011;6248;49.812;6.620;2023-06-14T05:40:36;3.60;;;3.30;;
12367;SDS011;6248;49.812;6.620;2023-06-14T05:43:03;4.03;;;3.67;;
12367;SDS011;6248;49.812;6.620;2023-06-14T05:45:30;6.65;;;3.80;;
12367;SDS011;6248;49.812;6.620;2023-06-14T05:47:57;3.70;;;3.40;;
12367;SDS011;6248;49.812;6.620;2023-06-14T05:50:24;4.35;;;3.42;;
12367;SDS011;6248;49.812;6.620;2023-06-14T05:52:52;4.93;;;3.45;;
12367;SDS011;6248;49.812;6.620;2023-06-14T05:55:20;6.13;;;3.40;;
12367;SDS011;6248;49.812;6.620;2023-06-14T05:57:48;3.95;;;3.42;;
12367;SDS011;6248;49.812;6.620;2023-06-14T06:00:16;4.97;;;3.78;;
12367;SDS011;6248;49.812;6.620;2023-06-14T06:02:44;4.85;;;3.60;;
12367;SDS011;6248;49.812;6.620;2023-06-14T06:05:12;4.57;;;3.78;;
12367;SDS011;6248;49.812;6.620;2023-06-14T06:07:40;3.50;;;3.20;;
12367;SDS011;6248;49.812;6.620;2023-06-14T06:10:09;4.65;;;3.35;;
12367;SDS011;6248;49.812;6.620;2023-06-14T06:12:36;4.28;;;3.17;;
12367;SDS011;6248;49.812;6.620;2023-06-14T06:15:05;3.33;;;2.97;;
12367;SDS011;6248;49.812;6.620;2023-06-14T06:17:37;6.32;;;3.80;;
12367;SDS011;6248;49.812;6.620;2023-06-14T06:20:04;3.80;;;3.50;;
12367;SDS011;6248;49.812;6.620;2023-06-14T06:22:33;4.35;;;3.20;;
12367;SDS011;6248;49.812;6.620;2023-06-14T06:25:00;4.85;;;3.53;;
12367;SDS011;6248;49.812;6.620;2023-06-14T06:27:28;3.60;;;3.30;;
12367;SDS011;6248;49.812;6.620;2023-06-14T06:29:55;3.50;;;3.20;;
12367;SDS011;6248;49.812;6.620;2023-06-14T06:32:23;6.15;;;3.05;;
12367;SDS011;6248;49.812;6.620;2023-06-14T06:34:50;3.83;;;3.20;;
12367;SDS011;6248;49.812;6.620;2023-06-14T06:37:18;4.20;;;3.58;;
12367;SDS011;6248;49.812;6.620;2023-06-14T06:39:45;4.15;;;3.40;;
12367;SDS011;6248;49.812;6.620;2023-06-14T06:42:12;3.90;;;3.00;;
12367;SDS011;6248;49.812;6.620;2023-06-14T06:44:40;5.43;;;3.10;;
12367;SDS011;6248;49.812;6.620;2023-06-14T06:47:07;3.85;;;3.55;;
12367;SDS011;6248;49.812;6.620;2023-06-14T06:49:36;5.72;;;3.13;;
12367;SDS011;6248;49.812;6.620;2023-06-14T06:52:04;4.80;;;3.30;;
12367;SDS011;6248;49.812;6.620;2023-06-14T06:54:31;3.90;;;3.30;;
12367;SDS011;6248;49.812;6.620;2023-06-14T06:56:58;3.90;;;3.00;;
12367;SDS011;6248;49.812;6.620;2023-06-14T06:59:26;3.80;;;3.33;;
12367;SDS011;6248;49.812;6.620;2023-06-14T07:01:54;6.03;;;3.42;;
12367;SDS011;6248;49.812;6.620;2023-06-14T07:04:24;5.03;;;3.00;;
12367;SDS011;6248;49.812;6.620;2023-06-14T07:07:03;5.90;;;3.25;;
12367;SDS011;6248;49.812;6.620;2023-06-14T07:09:31;5.05;;;3.33;;
12367;SDS011;6248;49.812;6.620;2023-06-14T07:11:59;3.58;;;3.25;;
12367;SDS011;6248;49.812;6.620;2023-06-14T07:14:26;3.40;;;3.10;;
12367;SDS011;6248;49.812;6.620;2023-06-14T07:16:56;3.75;;;3.25;;
12367;SDS011;6248;49.812;6.620;2023-06-14T07:19:26;3.50;;;2.90;;
12367;SDS011;6248;49.812;6.620;2023-06-14T07:21:53;7.07;;;3.40;;
12367;SDS011;6248;49.812;6.620;2023-06-14T07:24:25;5.30;;;3.13;;
12367;SDS011;6248;49.812;6.620;2023-06-14T07:26:55;4.90;;;3.40;;
12367;SDS011;6248;49.812;6.620;2023-06-14T07:29:23;3.42;;;3.13;;
12367;SDS011;6248;49.812;6.620;2023-06-14T07:32:01;3.35;;;3.08;;
12367;SDS011;6248;49.812;6.620;2023-06-14T07:34:31;4.07;;;3.30;;
12367;SDS011;6248;49.812;6.620;2023-06-14T07:37:02;3.08;;;2.78;;
12367;SDS011;6248;49.812;6.620;2023-06-14T07:39:31;3.97;;;3.00;;
12367;SDS011;6248;49.812;6.620;2023-06-14T07:42:12;6.07;;;3.20;;
12367;SDS011;6248;49.812;6.620;2023-06-14T07:44:44;4.45;;;3.13;;
12367;SDS011;6248;49.812;6.620;2023-06-14T07:47:13;5.82;;;3.30;;
12367;SDS011;6248;49.812;6.620;2023-06-14T07:49:42;4.72;;;3.20;;
12367;SDS011;6248;49.812;6.620;2023-06-14T07:52:18;3.92;;;3.20;;
12367;SDS011;6248;49.812;6.620;2023-06-14T07:54:52;4.05;;;2.90;;
12367;SDS011;6248;49.812;6.620;2023-06-14T07:57:20;3.60;;;3.30;;
12367;SDS011;6248;49.812;6.620;2023-06-14T07:59:51;6.07;;;3.22;;
12367;SDS011;6248;49.812;6.620;2023-06-14T08:02:19;4.03;;;2.65;;
12367;SDS011;6248;49.812;6.620;2023-06-14T08:04:47;4.72;;;3.22;;
12367;SDS011;6248;49.812;6.620;2023-06-14T08:07:17;3.42;;;2.95;;
12367;SDS011;6248;49.812;6.620;2023-06-14T08:09:52;3.75;;;3.42;;
12367;SDS011;6248;49.812;6.620;2023-06-14T08:12:21;5.10;;;3.38;;
12367;SDS011;6248;49.812;6.620;2023-06-14T08:14:50;4.28;;;3.17;;
12367;SDS011;6248;49.812;6.620;2023-06-14T08:17:18;3.17;;;2.85;;
12367;SDS011;6248;49.812;6.620;2023-06-14T08:19:50;4.43;;;3.05;;
12367;SDS011;6248;49.812;6.620;2023-06-14T08:22:20;3.55;;;2.80;;
12367;SDS011;6248;49.812;6.620;2023-06-14T08:24:49;3.42;;;3.10;;
12367;SDS011;6248;49.812;6.620;2023-06-14T08:27:25;4.40;;;3.00;;
12367;SDS011;6248;49.812;6.620;2023-06-14T08:29:53;5.85;;;3.10;;
12367;SDS011;6248;49.812;6.620;2023-06-14T08:32:20;6.50;;;3.00;;
12367;SDS011;6248;49.812;6.620;2023-06-14T08:34:50;4.47;;;2.75;;
12367;SDS011;6248;49.812;6.620;2023-06-14T08:37:18;3.67;;;2.80;;
12367;SDS011;6248;49.812;6.620;2023-06-14T08:39:48;3.67;;;3.08;;
12367;SDS011;6248;49.812;6.620;2023-06-14T08:42:16;4.03;;;3.15;;
12367;SDS011;6248;49.812;6.620;2023-06-14T08:44:46;5.28;;;3.03;;
12367;SDS011;6248;49.812;6.620;2023-06-14T08:47:14;5.43;;;2.80;;
12367;SDS011;6248;49.812;6.620;2023-06-14T08:49:45;3.60;;;3.00;;
12367;SDS011;6248;49.812;6.620;2023-06-14T08:52:13;3.42;;;2.83;;
12367;SDS011;6248;49.812;6.620;2023-06-14T08:54:43;4.22;;;3.30;;
12367;SDS011;6248;49.812;6.620;2023-06-14T08:57:14;3.95;;;2.85;;
12367;SDS011;6248;49.812;6.620;2023-06-14T08:59:50;3.88;;;2.90;;
12367;SDS011;6248;49.812;6.620;2023-06-14T09:02:19;4.05;;;2.78;;
12367;SDS011;6248;49.812;6.620;2023-06-14T09:04:47;4.38;;;3.15;;
12367;SDS011;6248;49.812;6.620;2023-06-14T09:07:15;5.75;;;3.20;;
12367;SDS011;6248;49.812;6.620;2023-06-14T09:09:43;5.00;;;2.92;;
12367;SDS011;6248;49.812;6.620;2023-06-14T09:12:10;4.15;;;3.45;;
12367;SDS011;6248;49.812;6.620;2023-06-14T09:14:38;4.75;;;3.10;;
12367;SDS011;6248;49.812;6.620;2023-06-14T09:17:08;4.57;;;3.00;;
12367;SDS011;6248;49.812;6.620;2023-06-14T09:19:40;2.78;;;2.53;;
12367;SDS011;6248;49.812;6.620;2023-06-14T09:22:07;6.60;;;3.20;;
12367;SDS011;6248;49.812;6.620;2023-06-14T09:24:36;3.38;;;3.17;;
12367;SDS011;6248;49.812;6.620;2023-06-14T09:27:04;4.18;;;2.90;;
12367;SDS011;6248;49.812;6.620;2023-06-14T09:29:31;7.13;;;2.85;;
12367;SDS011;6248;49.812;6.620;2023-06-14T09:31:58;3.67;;;2.90;;
12367;SDS011;6248;49.812;6.620;2023-06-14T09:34:27;4.30;;;3.10;;
12367;SDS011;6248;49.812;6.620;2023-06-14T09:36:55;3.20;;;2.97;;
12367;SDS011;6248;49.812;6.620;2023-06-14T09:39:22;3.55;;;3.10;;
12367;SDS011;6248;49.812;6.620;2023-06-14T09:41:50;3.53;;;3.08;;
12367;SDS011;6248;49.812;6.620;2023-06-14T09:44:17;3.67;;;3.38;;
12367;SDS011;6248;49.812;6.620;2023-06-14T09:46:45;4.07;;;2.80;;
12367;SDS011;6248;49.812;6.620;2023-06-14T09:49:12;4.18;;;2.97;;
12367;SDS011;6248;49.812;6.620;2023-06-14T09:51:43;3.70;;;2.85;;
12367;SDS011;6248;49.812;6.620;2023-06-14T09:54:11;5.28;;;3.47;;
12367;SDS011;6248;49.812;6.620;2023-06-14T09:56:43;4.32;;;2.95;;
12367;SDS011;6248;49.812;6.620;2023-06-14T09:59:12;3.80;;;3.08;;
12367;SDS011;6248;49.812;6.620;2023-06-14T10:01:41;4.40;;;3.17;;
12367;SDS011;6248;49.812;6.620;2023-06-14T10:04:09;6.55;;;3.38;;
12367;SDS011;6248;49.812;6.620;2023-06-14T10:06:37;5.47;;;3.00;;
12367;SDS011;6248;49.812;6.620;2023-06-14T10:09:08;5.57;;;3.00;;
12367;SDS011;6248;49.812;6.620;2023-06-14T10:11:36;4.90;;;2.58;;
12367;SDS011;6248;49.812;6.620;2023-06-14T10:14:08;3.50;;;3.10;;
12367;SDS011;6248;49.812;6.620;2023-06-14T10:16:37;5.03;;;3.25;;
12367;SDS011;6248;49.812;6.620;2023-06-14T10:19:07;4.57;;;2.90;;
12367;SDS011;6248;49.812;6.620;2023-06-14T10:21:41;3.13;;;2.83;;
12367;SDS011;6248;49.812;6.620;2023-06-14T10:24:12;5.38;;;2.55;;
12367;SDS011;6248;49.812;6.620;2023-06-14T10:26:49;4.63;;;3.20;;
12367;SDS011;6248;49.812;6.620;2023-06-14T10:29:17;4.15;;;2.70;;
12367;SDS011;6248;49.812;6.620;2023-06-14T10:31:44;4.13;;;2.65;;
12367;SDS011;6248;49.812;6.620;2023-06-14T10:34:12;4.40;;;2.75;;
12367;SDS011;6248;49.812;6.620;2023-06-14T10:36:50;6.95;;;3.03;;
12367;SDS011;6248;49.812;6.620;2023-06-14T10:39:28;3.45;;;2.92;;
12367;SDS011;6248;49.812;6.620;2023-06-14T10:41:55;3.08;;;2.78;;
12367;SDS011;6248;49.812;6.620;2023-06-14T10:44:39;3.25;;;2.50;;
12367;SDS011;6248;49.812;6.620;2023-06-14T10:47:07;3.70;;;2.50;;
12367;SDS011;6248;49.812;6.620;2023-06-14T10:49:41;4.63;;;2.60;;
12367;SDS011;6248;49.812;6.620;2023-06-14T10:52:10;4.32;;;2.67;;
12367;SDS011;6248;49.812;6.620;2023-06-14T10:55:04;4.05;;;2.58;;
12367;SDS011;6248;49.812;6.620;2023-06-14T10:57:34;2.70;;;2.50;;
12367;SDS011;6248;49.812;6.620;2023-06-14T11:00:02;5.35;;;2.70;;
12367;SDS011;6248;49.812;6.620;2023-06-14T11:02:46;4.55;;;2.63;;
12367;SDS011;6248;49.812;6.620;2023-06-14T11:05:14;4.97;;;2.67;;
12367;SDS011;6248;49.812;6.620;2023-06-14T11:07:44;3.75;;;2.45;;
12367;SDS011;6248;49.812;6.620;2023-06-14T11:10:19;3.58;;;2.40;;
12367;SDS011;6248;49.812;6.620;2023-06-14T11:12:50;3.97;;;2.78;;
12367;SDS011;6248;49.812;6.620;2023-06-14T11:15:19;3.08;;;2.80;;
12367;SDS011;6248;49.812;6.620;2023-06-14T11:17:49;4.82;;;2.72;;
12367;SDS011;6248;49.812;6.620;2023-06-14T11:20:18;4.63;;;2.20;;
12367;SDS011;6248;49.812;6.620;2023-06-14T11:22:47;3.30;;;2.42;;
12367;SDS011;6248;49.812;6.620;2023-06-14T11:25:14;3.95;;;2.58;;
12367;SDS011;6248;49.812;6.620;2023-06-14T11:27:43;3.90;;;2.70;;
12367;SDS011;6248;49.812;6.620;2023-06-14T11:30:10;4.35;;;2.42;;
12367;SDS011;6248;49.812;6.620;2023-06-14T11:32:38;3.80;;;2.88;;
12367;SDS011;6248;49.812;6.620;2023-06-14T11:35:06;3.33;;;2.35;;
12367;SDS011;6248;49.812;6.620;2023-06-14T11:37:34;2.42;;;2.22;;
12367;SDS011;6248;49.812;6.620;2023-06-14T11:40:03;4.68;;;2.50;;
12367;SDS011;6248;49.812;6.620;2023-06-14T11:42:33;3.80;;;2.50;;
12367;SDS011;6248;49.812;6.620;2023-06-14T11:45:02;2.60;;;2.30;;
12367;SDS011;6248;49.812;6.620;2023-06-14T11:47:31;3.17;;;2.30;;
12367;SDS011;6248;49.812;6.620;2023-06-14T11:49:58;2.55;;;2.30;;
12367;SDS011;6248;49.812;6.620;2023-06-14T11:52:25;4.22;;;2.47;;
12367;SDS011;6248;49.812;6.620;2023-06-14T11:54:53;2.80;;;2.20;;
12367;SDS011;6248;49.812;6.620;2023-06-14T11:57:20;5.32;;;2.53;;
12367;SDS011;6248;49.812;6.620;2023-06-14T11:59:48;3.30;;;2.13;;
12367;SDS011;6248;49.812;6.620;2023-06-14T12:02:17;4.13;;;2.35;;
12367;SDS011;6248;49.812;6.620;2023-06-14T12:04:46;3.00;;;2.20;;
12367;SDS011;6248;49.812;6.620;2023-06-14T12:07:14;3.28;;;1.95;;
12367;SDS011;6248;49.812;6.620;2023-06-14T12:09:42;3.05;;;2.20;;
12367;SDS011;6248;49.812;6.620;2023-06-14T12:12:34;4.57;;;2.40;;
12367;SDS011;6248;49.812;6.620;2023-06-14T12:15:02;2.85;;;2.28;;
12367;SDS011;6248;49.812;6.620;2023-06-14T12:17:32;4.10;;;2.00;;
12367;SDS011;6248;49.812;6.620;2023-06-14T12:20:04;4.85;;;2.28;;
12367;SDS011;6248;49.812;6.620;2023-06-14T12:22:36;2.38;;;2.17;;
12367;SDS011;6248;49.812;6.620;2023-06-14T12:25:03;2.90;;;2.05;;
12367;SDS011;6248;49.812;6.620;2023-06-14T12:27:30;2.55;;;2.10;;
12367;SDS011;6248;49.812;6.620;2023-06-14T12:29:58;3.50;;;2.03;;
12367;SDS011;6248;49.812;6.620;2023-06-14T12:32:26;2.65;;;2.00;;
12367;SDS011;6248;49.812;6.620;2023-06-14T12:34:54;3.55;;;2.17;;
12367;SDS011;6248;49.812;6.620;2023-06-14T12:37:22;4.60;;;2.25;;
12367;SDS011;6248;49.812;6.620;2023-06-14T12:39:50;4.88;;;2.10;;
12367;SDS011;6248;49.812;6.620;2023-06-14T12:42:17;2.95;;;1.90;;
12367;SDS011;6248;49.812;6.620;2023-06-14T12:44:44;2.30;;;2.10;;
12367;SDS011;6248;49.812;6.620;2023-06-14T12:47:11;2.35;;;2.00;;
12367;SDS011;6248;49.812;6.620;2023-06-14T12:49:39;2.83;;;1.90;;
12367;SDS011;6248;49.812;6.620;2023-06-14T12:52:09;1.90;;;1.80;;
12367;SDS011;6248;49.812;6.620;2023-06-14T12:54:36;3.25;;;2.00;;
12367;SDS011;6248;49.812;6.620;2023-06-14T12:57:04;3.45;;;2.10;;
12367;SDS011;6248;49.812;6.620;2023-06-14T12:59:31;2.35;;;2.13;;
12367;SDS011;6248;49.812;6.620;2023-06-14T13:01:59;3.72;;;1.85;;
12367;SDS011;6248;49.812;6.620;2023-06-14T13:04:27;3.75;;;1.95;;
12367;SDS011;6248;49.812;6.620;2023-06-14T13:06:54;3.13;;;2.10;;
12367;SDS011;6248;49.812;6.620;2023-06-14T13:09:23;2.08;;;1.85;;
12367;SDS011;6248;49.812;6.620;2023-06-14T13:11:50;5.13;;;2.13;;
12367;SDS011;6248;49.812;6.620;2023-06-14T13:14:17;2.15;;;1.77;;
12367;SDS011;6248;49.812;6.620;2023-06-14T13:16:44;4.65;;;2.25;;
12367;SDS011;6248;49.812;6.620;2023-06-14T13:19:11;3.47;;;1.80;;
12367;SDS011;6248;49.812;6.620;2023-06-14T13:21:38;2.00;;;1.90;;
12367;SDS011;6248;49.812;6.620;2023-06-14T13:24:06;2.08;;;1.80;;
12367;SDS011;6248;49.812;6.620;2023-06-14T13:26:34;3.47;;;2.00;;
12367;SDS011;6248;49.812;6.620;2023-06-14T13:29:01;3.03;;;1.80;;
12367;SDS011;6248;49.812;6.620;2023-06-14T13:31:28;3.63;;;2.00;;
12367;SDS011;6248;49.812;6.620;2023-06-14T13:33:56;1.95;;;1.75;;
12367;SDS011;6248;49.812;6.620;2023-06-14T13:36:23;2.05;;;1.88;;
12367;SDS011;6248;49.812;6.620;2023-06-14T13:38:50;2.03;;;1.80;;
12367;SDS011;6248;49.812;6.620;2023-06-14T13:41:19;3.45;;;1.90;;
12367;SDS011;6248;49.812;6.620;2023-06-14T13:43:48;2.08;;;1.90;;
12367;SDS011;6248;49.812;6.620;2023-06-14T13:46:15;2.17;;;1.90;;
12367;SDS011;6248;49.812;6.620;2023-06-14T13:48:42;3.10;;;1.75;;
12367;SDS011;6248;49.812;6.620;2023-06-14T13:51:12;4.50;;;1.90;;
12367;SDS011;6248;49.812;6.620;2023-06-14T13:53:39;1.92;;;1.83;;
12367;SDS011;6248;49.812;6.620;2023-06-14T13:56:07;4.93;;;2.10;;
12367;SDS011;6248;49.812;6.620;2023-06-14T13:58:34;2.00;;;1.90;;
12367;SDS011;6248;49.812;6.620;2023-06-14T14:01:02;3.25;;;1.83;;
12367;SDS011;6248;49.812;6.620;2023-06-14T14:03:30;2.85;;;1.85;;
12367;SDS011;6248;49.812;6.620;2023-06-14T14:05:58;2.25;;;2.05;;
12367;SDS011;6248;49.812;6.620;2023-06-14T14:08:25;2.88;;;1.90;;
12367;SDS011;6248;49.812;6.620;2023-06-14T14:10:52;2.50;;;2.03;;
12367;SDS011;6248;49.812;6.620;2023-06-14T14:13:21;1.80;;;1.70;;
12367;SDS011;6248;49.812;6.620;2023-06-14T14:15:48;3.30;;;2.00;;
12367;SDS011;6248;49.812;6.620;2023-06-14T14:18:17;2.00;;;1.90;;
12367;SDS011;6248;49.812;6.620;2023-06-14T14:20:45;1.85;;;1.73;;
12367;SDS011;6248;49.812;6.620;2023-06-14T14:23:12;2.65;;;1.73;;
12367;SDS011;6248;49.812;6.620;2023-06-14T14:25:40;3.15;;;1.70;;
12367;SDS011;6248;49.812;6.620;2023-06-14T14:28:07;2.35;;;1.98;;
12367;SDS011;6248;49.812;6.620;2023-06-14T14:30:36;4.88;;;1.95;;
12367;SDS011;6248;49.812;6.620;2023-06-14T14:33:05;2.28;;;2.00;;
12367;SDS011;6248;49.812;6.620;2023-06-14T14:35:33;2.40;;;1.85;;
12367;SDS011;6248;49.812;6.620;2023-06-14T14:38:01;3.17;;;1.77;;
12367;SDS011;6248;49.812;6.620;2023-06-14T14:40:30;3.10;;;1.70;;
12367;SDS011;6248;49.812;6.620;2023-06-14T14:42:57;2.92;;;1.83;;
12367;SDS011;6248;49.812;6.620;2023-06-14T14:45:24;2.92;;;1.92;;
12367;SDS011;6248;49.812;6.620;2023-06-14T14:47:51;1.88;;;1.75;;
12367;SDS011;6248;49.812;6.620;2023-06-14T14:50:18;2.47;;;1.70;;
12367;SDS011;6248;49.812;6.620;2023-06-14T14:52:47;3.15;;;1.77;;
12367;SDS011;6248;49.812;6.620;2023-06-14T14:55:14;2.80;;;1.77;;
12367;SDS011;6248;49.812;6.620;2023-06-14T14:57:41;2.88;;;1.75;;
12367;SDS011;6248;49.812;6.620;2023-06-14T15:00:09;2.28;;;1.70;;
12367;SDS011;6248;49.812;6.620;2023-06-14T15:02:36;1.98;;;1.70;;
12367;SDS011;6248;49.812;6.620;2023-06-14T15:05:03;1.73;;;1.60;;
12367;SDS011;6248;49.812;6.620;2023-06-14T15:07:31;1.75;;;1.65;;
12367;SDS011;6248;49.812;6.620;2023-06-14T15:10:00;5.80;;;1.80;;
12367;SDS011;6248;49.812;6.620;2023-06-14T15:12:27;2.72;;;1.85;;